sensor_id;sensor_type;location;lat;lon;timestamp;pressure;altitude;pressure_sealevel;temperature;humidity
3428;BME280;1727;42.624;23.406;2022-10-31T00:00:05;95331.97;;;14.24;68.01
3428;BME280;1727;42.624;23.406;2022-10-31T00:02:32;95318.22;;;14.20;67.75
3428;BME280;1727;42.624;23.406;2022-10-31T00:04:59;95314.88;;;14.18;67.66
3428;BME280;1727;42.624;23.406;2022-10-31T00:07:25;95311.28;;;14.19;67.41
3428;BME280;1727;42.624;23.406;2022-10-31T00:09:53;95307.94;;;14.17;67.44
3428;BME280;1727;42.624;23.406;2022-10-31T00:12:20;95316.41;;;14.11;67.53
3428;BME280;1727;42.624;23.406;2022-10-31T00:14:47;95326.28;;;14.09;67.85
3428;BME280;1727;42.624;23.406;2022-10-31T00:17:14;95325.56;;;14.07;67.64
3428;BME280;1727;42.624;23.406;2022-10-31T00:19:40;95319.31;;;14.08;68.08
3428;BME280;1727;42.624;23.406;2022-10-31T00:22:07;95321.00;;;14.09;68.12
3428;BME280;1727;42.624;23.406;2022-10-31T00:24:34;95323.50;;;14.11;67.87
3428;BME280;1727;42.624;23.406;2022-10-31T00:27:02;95326.56;;;14.06;67.80
3428;BME280;1727;42.624;23.406;2022-10-31T00:29:29;95327.53;;;14.05;67.95
3428;BME280;1727;42.624;23.406;2022-10-31T00:31:56;95319.91;;;14.02;68.01
3428;BME280;1727;42.624;23.406;2022-10-31T00:34:22;95321.56;;;14.03;67.96
3428;BME280;1727;42.624;23.406;2022-10-31T00:36:49;95320.19;;;13.99;67.77
3428;BME280;1727;42.624;23.406;2022-10-31T00:39:16;95319.34;;;13.99;68.22
3428;BME280;1727;42.624;23.406;2022-10-31T00:41:43;95311.56;;;13.97;68.11
3428;BME280;1727;42.624;23.406;2022-10-31T00:44:11;95316.03;;;13.97;68.15
3428;BME280;1727;42.624;23.406;2022-10-31T00:46:37;95316.84;;;13.97;67.81
3428;BME280;1727;42.624;23.406;2022-10-31T00:49:04;95318.38;;;13.90;68.13
3428;BME280;1727;42.624;23.406;2022-10-31T00:51:31;95320.75;;;13.93;67.89
3428;BME280;1727;42.624;23.406;2022-10-31T00:53:58;95321.84;;;13.90;68.21
3428;BME280;1727;42.624;23.406;2022-10-31T00:56:24;95319.09;;;13.92;67.82
3428;BME280;1727;42.624;23.406;2022-10-31T00:58:51;95313.81;;;13.92;68.03
3428;BME280;1727;42.624;23.406;2022-10-31T01:01:19;95316.16;;;13.95;68.06
3428;BME280;1727;42.624;23.406;2022-10-31T01:03:46;95313.81;;;13.92;67.78
3428;BME280;1727;42.624;23.406;2022-10-31T01:06:13;95319.09;;;13.92;67.64
3428;BME280;1727;42.624;23.406;2022-10-31T01:08:41;95314.09;;;13.89;67.65
3428;BME280;1727;42.624;23.406;2022-10-31T01:11:11;95322.69;;;13.91;68.33
3428;BME280;1727;42.624;23.406;2022-10-31T01:13:38;95322.09;;;13.87;68.48
3428;BME280;1727;42.624;23.406;2022-10-31T01:16:07;95320.19;;;13.89;68.24
3428;BME280;1727;42.624;23.406;2022-10-31T01:18:36;95321.56;;;13.93;68.43
3428;BME280;1727;42.624;23.406;2022-10-31T01:21:04;95333.25;;;13.91;68.35
3428;BME280;1727;42.624;23.406;2022-10-31T01:23:32;95325.03;;;13.84;68.33
3428;BME280;1727;42.624;23.406;2022-10-31T01:26:04;95337.38;;;13.84;68.48
3428;BME280;1727;42.624;23.406;2022-10-31T01:28:31;95334.34;;;13.79;68.77
3428;BME280;1727;42.624;23.406;2022-10-31T01:31:00;95334.47;;;13.77;69.14
3428;BME280;1727;42.624;23.406;2022-10-31T01:33:27;95338.91;;;13.77;69.17
3428;BME280;1727;42.624;23.406;2022-10-31T01:35:55;95333.78;;;13.66;69.27
3428;BME280;1727;42.624;23.406;2022-10-31T01:38:22;95332.00;;;13.66;69.76
3428;BME280;1727;42.624;23.406;2022-10-31T01:40:49;95323.81;;;13.59;69.72
3428;BME280;1727;42.624;23.406;2022-10-31T01:43:16;95337.41;;;13.64;69.69
3428;BME280;1727;42.624;23.406;2022-10-31T01:45:46;95345.72;;;13.70;69.70
3428;BME280;1727;42.624;23.406;2022-10-31T01:48:18;95346.84;;;13.67;69.88
3428;BME280;1727;42.624;23.406;2022-10-31T01:50:48;95340.72;;;13.67;70.16
3428;BME280;1727;42.624;23.406;2022-10-31T01:53:17;95341.97;;;13.72;69.76
3428;BME280;1727;42.624;23.406;2022-10-31T01:55:46;95346.56;;;13.70;69.78
3428;BME280;1727;42.624;23.406;2022-10-31T01:58:15;95339.47;;;13.71;69.73
3428;BME280;1727;42.624;23.406;2022-10-31T02:00:46;95349.91;;;13.62;69.94
3428;BME280;1727;42.624;23.406;2022-10-31T02:03:16;95353.34;;;13.53;71.20
3428;BME280;1727;42.624;23.406;2022-10-31T02:05:44;95350.28;;;13.58;71.50
3428;BME280;1727;42.624;23.406;2022-10-31T02:08:14;95351.09;;;13.58;71.21
3428;BME280;1727;42.624;23.406;2022-10-31T02:10:45;95348.22;;;13.61;71.19
3428;BME280;1727;42.624;23.406;2022-10-31T02:13:12;95335.75;;;13.63;71.16
3428;BME280;1727;42.624;23.406;2022-10-31T02:15:40;95344.34;;;13.66;70.92
3428;BME280;1727;42.624;23.406;2022-10-31T02:18:08;95339.06;;;13.66;71.00
3428;BME280;1727;42.624;23.406;2022-10-31T02:20:40;95342.69;;;13.64;70.82
3428;BME280;1727;42.624;23.406;2022-10-31T02:23:26;95347.25;;;13.62;70.49
3428;BME280;1727;42.624;23.406;2022-10-31T02:26:13;95343.50;;;13.65;70.08
3428;BME280;1727;42.624;23.406;2022-10-31T02:29:04;95333.25;;;13.62;70.30
3428;BME280;1727;42.624;23.406;2022-10-31T02:31:39;95339.75;;;13.68;69.99
3428;BME280;1727;42.624;23.406;2022-10-31T02:34:17;95345.59;;;13.71;69.72
3428;BME280;1727;42.624;23.406;2022-10-31T02:36:52;95352.66;;;13.80;69.96
3428;BME280;1727;42.624;23.406;2022-10-31T02:39:24;95352.25;;;13.85;69.15
3428;BME280;1727;42.624;23.406;2022-10-31T02:42:02;95356.53;;;13.86;69.49
3428;BME280;1727;42.624;23.406;2022-10-31T02:44:35;95364.91;;;13.91;69.22
3428;BME280;1727;42.624;23.406;2022-10-31T02:47:06;95353.25;;;13.93;69.10
3428;BME280;1727;42.624;23.406;2022-10-31T02:49:38;95358.50;;;13.93;68.87
3428;BME280;1727;42.624;23.406;2022-10-31T02:52:16;95364.22;;;13.89;68.76
3428;BME280;1727;42.624;23.406;2022-10-31T02:54:44;95362.25;;;13.91;69.08
3428;BME280;1727;42.624;23.406;2022-10-31T02:57:12;95361.44;;;13.90;68.98
3428;BME280;1727;42.624;23.406;2022-10-31T02:59:48;95366.44;;;13.93;68.80
3428;BME280;1727;42.624;23.406;2022-10-31T03:02:29;95372.13;;;13.89;70.06
3428;BME280;1727;42.624;23.406;2022-10-31T03:05:12;95376.00;;;13.66;71.08
3428;BME280;1727;42.624;23.406;2022-10-31T03:07:50;95373.78;;;13.71;70.68
3428;BME280;1727;42.624;23.406;2022-10-31T03:10:28;95370.16;;;13.72;70.76
3428;BME280;1727;42.624;23.406;2022-10-31T03:13:02;95364.88;;;13.72;71.24
3428;BME280;1727;42.624;23.406;2022-10-31T03:15:35;95357.66;;;13.74;70.18
3428;BME280;1727;42.624;23.406;2022-10-31T03:18:07;95355.16;;;13.72;70.12
3428;BME280;1727;42.624;23.406;2022-10-31T03:20:38;95366.69;;;13.71;70.22
3428;BME280;1727;42.624;23.406;2022-10-31T03:23:11;95366.69;;;13.71;70.23
3428;BME280;1727;42.624;23.406;2022-10-31T03:25:41;95365.84;;;13.71;69.93
3428;BME280;1727;42.624;23.406;2022-10-31T03:28:10;95371.41;;;13.68;70.45
3428;BME280;1727;42.624;23.406;2022-10-31T03:30:41;95375.28;;;13.63;70.69
3428;BME280;1727;42.624;23.406;2022-10-31T03:33:13;95377.94;;;13.63;70.75
3428;BME280;1727;42.624;23.406;2022-10-31T03:35:44;95378.75;;;13.64;70.53
3428;BME280;1727;42.624;23.406;2022-10-31T03:38:13;95379.47;;;13.66;71.09
3428;BME280;1727;42.624;23.406;2022-10-31T03:40:43;95381.81;;;13.69;70.78
3428;BME280;1727;42.624;23.406;2022-10-31T03:43:14;95381.69;;;13.71;70.76
3428;BME280;1727;42.624;23.406;2022-10-31T03:45:45;95389.31;;;13.74;70.64
3428;BME280;1727;42.624;23.406;2022-10-31T03:48:16;95386.81;;;13.72;70.64
3428;BME280;1727;42.624;23.406;2022-10-31T03:50:49;95380.97;;;13.69;70.56
3428;BME280;1727;42.624;23.406;2022-10-31T03:53:24;95387.50;;;13.74;70.92
3428;BME280;1727;42.624;23.406;2022-10-31T03:55:56;95387.09;;;13.79;71.03
3428;BME280;1727;42.624;23.406;2022-10-31T03:58:32;95396.81;;;13.78;70.75
3428;BME280;1727;42.624;23.406;2022-10-31T04:01:04;95400.00;;;13.82;70.72
3428;BME280;1727;42.624;23.406;2022-10-31T04:03:35;95404.03;;;13.86;70.79
3428;BME280;1727;42.624;23.406;2022-10-31T04:06:05;95401.16;;;13.89;70.24
3428;BME280;1727;42.624;23.406;2022-10-31T04:08:38;95406.28;;;13.90;70.71
3428;BME280;1727;42.624;23.406;2022-10-31T04:11:08;95403.50;;;13.92;70.66
3428;BME280;1727;42.624;23.406;2022-10-31T04:13:38;95409.31;;;13.86;70.59
3428;BME280;1727;42.624;23.406;2022-10-31T04:16:07;95409.31;;;13.86;70.67
3428;BME280;1727;42.624;23.406;2022-10-31T04:18:36;95406.44;;;13.89;70.73
3428;BME280;1727;42.624;23.406;2022-10-31T04:21:04;95412.78;;;13.86;70.61
3428;BME280;1727;42.624;23.406;2022-10-31T04:23:32;95413.75;;;13.85;70.98
3428;BME280;1727;42.624;23.406;2022-10-31T04:25:59;95411.94;;;13.86;70.98
3428;BME280;1727;42.624;23.406;2022-10-31T04:28:26;95410.97;;;13.87;71.11
3428;BME280;1727;42.624;23.406;2022-10-31T04:30:53;95408.22;;;13.88;71.02
3428;BME280;1727;42.624;23.406;2022-10-31T04:33:20;95408.22;;;13.88;71.25
3428;BME280;1727;42.624;23.406;2022-10-31T04:35:48;95405.69;;;13.87;71.57
3428;BME280;1727;42.624;23.406;2022-10-31T04:38:15;95418.78;;;13.88;71.39
3428;BME280;1727;42.624;23.406;2022-10-31T04:40:42;95420.59;;;13.88;71.23
3428;BME280;1727;42.624;23.406;2022-10-31T04:43:09;95418.63;;;13.90;71.28
3428;BME280;1727;42.624;23.406;2022-10-31T04:45:37;95420.84;;;13.85;71.20
3428;BME280;1727;42.624;23.406;2022-10-31T04:48:04;95415.56;;;13.85;71.83
3428;BME280;1727;42.624;23.406;2022-10-31T04:50:31;95427.53;;;13.89;71.51
3428;BME280;1727;42.624;23.406;2022-10-31T04:52:59;95427.38;;;13.90;71.61
3428;BME280;1727;42.624;23.406;2022-10-31T04:55:25;95432.53;;;13.92;71.44
3428;BME280;1727;42.624;23.406;2022-10-31T04:57:52;95436.00;;;13.92;70.96
3428;BME280;1727;42.624;23.406;2022-10-31T05:00:21;95429.06;;;13.91;71.32
3428;BME280;1727;42.624;23.406;2022-10-31T05:02:49;95427.94;;;13.94;71.33
3428;BME280;1727;42.624;23.406;2022-10-31T05:05:17;95430.59;;;13.94;71.38
3428;BME280;1727;42.624;23.406;2022-10-31T05:07:46;95424.63;;;13.92;71.39
3428;BME280;1727;42.624;23.406;2022-10-31T05:10:16;95424.63;;;13.92;71.52
3428;BME280;1727;42.624;23.406;2022-10-31T05:12:47;95426.69;;;13.88;71.74
3428;BME280;1727;42.624;23.406;2022-10-31T05:15:14;95425.72;;;13.89;72.13
3428;BME280;1727;42.624;23.406;2022-10-31T05:17:42;95431.56;;;14.12;72.04
3428;BME280;1727;42.624;23.406;2022-10-31T05:20:09;95429.06;;;14.59;69.84
3428;BME280;1727;42.624;23.406;2022-10-31T05:22:36;95447.25;;;15.28;68.29
3428;BME280;1727;42.624;23.406;2022-10-31T05:25:04;95445.09;;;15.78;66.23
3428;BME280;1727;42.624;23.406;2022-10-31T05:27:32;95441.56;;;16.05;64.44
3428;BME280;1727;42.624;23.406;2022-10-31T05:29:59;95449.28;;;15.99;64.05
3428;BME280;1727;42.624;23.406;2022-10-31T05:32:25;95455.47;;;15.90;64.47
3428;BME280;1727;42.624;23.406;2022-10-31T05:34:52;95454.56;;;15.44;64.78
3428;BME280;1727;42.624;23.406;2022-10-31T05:37:19;95460.94;;;15.14;66.08
3428;BME280;1727;42.624;23.406;2022-10-31T05:39:46;95461.03;;;14.17;69.54
3428;BME280;1727;42.624;23.406;2022-10-31T05:42:12;95458.94;;;14.21;69.88
3428;BME280;1727;42.624;23.406;2022-10-31T05:44:40;95460.47;;;14.23;69.24
3428;BME280;1727;42.624;23.406;2022-10-31T05:47:07;95476.09;;;13.37;72.53
3428;BME280;1727;42.624;23.406;2022-10-31T05:49:34;95467.53;;;13.54;71.99
3428;BME280;1727;42.624;23.406;2022-10-31T05:52:01;95480.50;;;13.67;72.04
3428;BME280;1727;42.624;23.406;2022-10-31T05:54:27;95472.06;;;13.73;71.76
3428;BME280;1727;42.624;23.406;2022-10-31T05:56:54;95475.13;;;13.78;72.58
3428;BME280;1727;42.624;23.406;2022-10-31T05:59:21;95481.78;;;13.82;72.19
3428;BME280;1727;42.624;23.406;2022-10-31T06:01:49;95479.97;;;13.82;71.82
3428;BME280;1727;42.624;23.406;2022-10-31T06:04:16;95474.28;;;13.77;71.45
3428;BME280;1727;42.624;23.406;2022-10-31T06:06:42;95488.03;;;13.81;72.30
3428;BME280;1727;42.624;23.406;2022-10-31T06:09:09;95487.38;;;13.88;72.11
3428;BME280;1727;42.624;23.406;2022-10-31T06:11:36;95489.59;;;14.03;72.21
3428;BME280;1727;42.624;23.406;2022-10-31T06:14:03;95495.50;;;14.45;71.17
3428;BME280;1727;42.624;23.406;2022-10-31T06:16:30;95490.16;;;15.12;69.88
3428;BME280;1727;42.624;23.406;2022-10-31T06:18:58;95494.38;;;15.79;67.61
3428;BME280;1727;42.624;23.406;2022-10-31T06:21:25;95505.75;;;16.35;65.75
3428;BME280;1727;42.624;23.406;2022-10-31T06:23:52;95498.97;;;16.86;63.52
3428;BME280;1727;42.624;23.406;2022-10-31T06:26:19;95507.38;;;17.25;61.34
3428;BME280;1727;42.624;23.406;2022-10-31T06:28:45;95515.84;;;17.54;60.06
3428;BME280;1727;42.624;23.406;2022-10-31T06:31:12;95515.50;;;17.75;59.63
3428;BME280;1727;42.624;23.406;2022-10-31T06:33:41;95509.63;;;17.98;58.99
3428;BME280;1727;42.624;23.406;2022-10-31T06:36:09;95515.66;;;18.16;58.33
3428;BME280;1727;42.624;23.406;2022-10-31T06:38:37;95513.41;;;18.37;57.53
3428;BME280;1727;42.624;23.406;2022-10-31T06:41:04;95515.22;;;18.45;56.77
3428;BME280;1727;42.624;23.406;2022-10-31T06:43:31;95524.34;;;18.26;56.81
3428;BME280;1727;42.624;23.406;2022-10-31T06:46:04;95514.50;;;18.18;57.15
3428;BME280;1727;42.624;23.406;2022-10-31T06:48:34;95520.53;;;18.37;57.19
3428;BME280;1727;42.624;23.406;2022-10-31T06:51:07;95529.16;;;18.22;56.47
3428;BME280;1727;42.624;23.406;2022-10-31T06:53:35;95523.94;;;18.05;57.54
3428;BME280;1727;42.624;23.406;2022-10-31T06:56:02;95520.78;;;18.09;57.85
3428;BME280;1727;42.624;23.406;2022-10-31T06:58:29;95526.28;;;18.16;57.57
3428;BME280;1727;42.624;23.406;2022-10-31T07:00:58;95523.28;;;18.19;57.41
3428;BME280;1727;42.624;23.406;2022-10-31T07:03:25;95521.63;;;18.18;57.27
3428;BME280;1727;42.624;23.406;2022-10-31T07:05:54;95516.66;;;18.15;57.81
3428;BME280;1727;42.624;23.406;2022-10-31T07:08:21;95522.28;;;18.12;57.81
3428;BME280;1727;42.624;23.406;2022-10-31T07:10:53;95512.63;;;18.03;57.50
3428;BME280;1727;42.624;23.406;2022-10-31T07:13:21;95511.28;;;17.99;57.76
3428;BME280;1727;42.624;23.406;2022-10-31T07:15:51;95516.56;;;17.90;58.79
3428;BME280;1727;42.624;23.406;2022-10-31T07:18:19;95509.75;;;17.88;59.30
3428;BME280;1727;42.624;23.406;2022-10-31T07:20:46;95515.16;;;17.70;59.31
3428;BME280;1727;42.624;23.406;2022-10-31T07:23:12;95509.53;;;17.73;59.54
3428;BME280;1727;42.624;23.406;2022-10-31T07:25:40;95510.66;;;17.71;59.70
3428;BME280;1727;42.624;23.406;2022-10-31T07:28:08;95504.22;;;17.73;60.11
3428;BME280;1727;42.624;23.406;2022-10-31T07:30:36;95502.22;;;17.75;60.69
3428;BME280;1727;42.624;23.406;2022-10-31T07:33:03;95496.09;;;17.75;60.24
3428;BME280;1727;42.624;23.406;2022-10-31T07:35:30;95495.91;;;17.68;60.74
3428;BME280;1727;42.624;23.406;2022-10-31T07:38:06;95496.09;;;17.75;60.98
3428;BME280;1727;42.624;23.406;2022-10-31T07:40:33;95498.22;;;17.45;61.24
3428;BME280;1727;42.624;23.406;2022-10-31T07:43:00;95503.56;;;17.53;61.50
3428;BME280;1727;42.624;23.406;2022-10-31T07:45:29;95503.59;;;17.61;60.92
3428;BME280;1727;42.624;23.406;2022-10-31T07:47:55;95507.06;;;17.54;61.63
3428;BME280;1727;42.624;23.406;2022-10-31T07:50:26;95500.75;;;17.55;61.43
3428;BME280;1727;42.624;23.406;2022-10-31T07:53:01;95501.88;;;17.44;61.59
3428;BME280;1727;42.624;23.406;2022-10-31T07:55:28;95507.22;;;17.26;62.42
3428;BME280;1727;42.624;23.406;2022-10-31T07:57:59;95502.75;;;17.27;62.46
3428;BME280;1727;42.624;23.406;2022-10-31T08:00:27;95506.75;;;17.31;62.36
3428;BME280;1727;42.624;23.406;2022-10-31T08:02:59;95505.25;;;17.28;62.47
3428;BME280;1727;42.624;23.406;2022-10-31T08:05:26;95503.56;;;17.27;62.40
3428;BME280;1727;42.624;23.406;2022-10-31T08:07:53;95505.09;;;17.30;62.74
3428;BME280;1727;42.624;23.406;2022-10-31T08:10:20;95505.25;;;17.28;62.88
3428;BME280;1727;42.624;23.406;2022-10-31T08:12:47;95502.03;;;17.43;62.69
3428;BME280;1727;42.624;23.406;2022-10-31T08:15:20;95502.78;;;17.61;62.70
3428;BME280;1727;42.624;23.406;2022-10-31T08:17:47;95496.94;;;17.83;61.76
3428;BME280;1727;42.624;23.406;2022-10-31T08:20:15;95505.34;;;18.05;61.52
3428;BME280;1727;42.624;23.406;2022-10-31T08:22:42;95503.53;;;18.13;60.48
3428;BME280;1727;42.624;23.406;2022-10-31T08:25:09;95506.91;;;18.32;60.33
3428;BME280;1727;42.624;23.406;2022-10-31T08:27:36;95498.47;;;18.44;60.75
3428;BME280;1727;42.624;23.406;2022-10-31T08:30:05;95510.47;;;18.56;59.17
3428;BME280;1727;42.624;23.406;2022-10-31T08:32:32;95502.50;;;18.65;58.73
3428;BME280;1727;42.624;23.406;2022-10-31T08:34:59;95501.00;;;18.78;58.51
3428;BME280;1727;42.624;23.406;2022-10-31T08:37:27;95497.69;;;19.01;57.90
3428;BME280;1727;42.624;23.406;2022-10-31T08:39:54;95498.19;;;19.21;57.44
3428;BME280;1727;42.624;23.406;2022-10-31T08:42:36;95498.16;;;19.45;57.06
3428;BME280;1727;42.624;23.406;2022-10-31T08:45:08;95485.47;;;19.71;56.55
3428;BME280;1727;42.624;23.406;2022-10-31T08:47:34;95483.56;;;19.88;55.61
3428;BME280;1727;42.624;23.406;2022-10-31T08:50:01;95495.34;;;20.02;55.58
3428;BME280;1727;42.624;23.406;2022-10-31T08:52:29;95494.34;;;20.03;54.80
3428;BME280;1727;42.624;23.406;2022-10-31T08:54:56;95489.09;;;20.18;54.55
3428;BME280;1727;42.624;23.406;2022-10-31T08:57:23;95483.56;;;20.27;54.29
3428;BME280;1727;42.624;23.406;2022-10-31T08:59:50;95486.25;;;20.27;54.06
3428;BME280;1727;42.624;23.406;2022-10-31T09:02:17;95488.56;;;20.30;53.80
3428;BME280;1727;42.624;23.406;2022-10-31T09:04:43;95476.84;;;20.39;54.50
3428;BME280;1727;42.624;23.406;2022-10-31T09:07:10;95479.16;;;20.42;53.93
3428;BME280;1727;42.624;23.406;2022-10-31T09:09:38;95480.09;;;20.27;53.80
3428;BME280;1727;42.624;23.406;2022-10-31T09:12:05;95484.22;;;20.29;53.79
3428;BME280;1727;42.624;23.406;2022-10-31T09:14:32;95487.03;;;20.36;53.48
3428;BME280;1727;42.624;23.406;2022-10-31T09:16:58;95479.66;;;20.38;53.62
3428;BME280;1727;42.624;23.406;2022-10-31T09:19:25;95483.97;;;20.47;53.65
3428;BME280;1727;42.624;23.406;2022-10-31T09:21:53;95480.56;;;20.61;53.58
3428;BME280;1727;42.624;23.406;2022-10-31T09:24:20;95479.47;;;20.70;52.95
3428;BME280;1727;42.624;23.406;2022-10-31T09:26:48;95474.41;;;20.84;52.36
3428;BME280;1727;42.624;23.406;2022-10-31T09:29:15;95474.16;;;20.93;52.32
3428;BME280;1727;42.624;23.406;2022-10-31T09:31:42;95472.22;;;21.02;52.11
3428;BME280;1727;42.624;23.406;2022-10-31T09:34:08;95481.34;;;21.08;51.65
3428;BME280;1727;42.624;23.406;2022-10-31T09:36:35;95471.91;;;21.20;52.02
3428;BME280;1727;42.624;23.406;2022-10-31T09:39:02;95478.50;;;21.32;51.37
3428;BME280;1727;42.624;23.406;2022-10-31T09:41:37;95472.25;;;21.40;51.04
3428;BME280;1727;42.624;23.406;2022-10-31T09:44:18;95476.59;;;21.41;50.54
3428;BME280;1727;42.624;23.406;2022-10-31T09:46:55;95467.56;;;21.42;50.85
3428;BME280;1727;42.624;23.406;2022-10-31T09:49:36;95469.69;;;21.46;50.83
3428;BME280;1727;42.624;23.406;2022-10-31T09:52:11;95467.38;;;21.43;50.10
3428;BME280;1727;42.624;23.406;2022-10-31T09:54:47;95471.81;;;21.51;50.12
3428;BME280;1727;42.624;23.406;2022-10-31T09:57:18;95468.94;;;21.52;50.41
3428;BME280;1727;42.624;23.406;2022-10-31T09:59:48;95463.16;;;21.49;50.05
3428;BME280;1727;42.624;23.406;2022-10-31T10:02:20;95459.47;;;21.50;50.67
3428;BME280;1727;42.624;23.406;2022-10-31T10:04:53;95462.03;;;21.58;50.42
3428;BME280;1727;42.624;23.406;2022-10-31T10:07:29;95456.50;;;21.59;50.15
3428;BME280;1727;42.624;23.406;2022-10-31T10:09:57;95447.13;;;21.63;50.11
3428;BME280;1727;42.624;23.406;2022-10-31T10:12:37;95447.22;;;21.70;50.25
3428;BME280;1727;42.624;23.406;2022-10-31T10:15:25;95443.81;;;21.76;49.31
3428;BME280;1727;42.624;23.406;2022-10-31T10:17:59;95444.63;;;21.77;49.47
3428;BME280;1727;42.624;23.406;2022-10-31T10:20:33;95440.56;;;21.81;49.50
3428;BME280;1727;42.624;23.406;2022-10-31T10:23:23;95439.00;;;21.86;49.70
3428;BME280;1727;42.624;23.406;2022-10-31T10:26:01;95436.59;;;21.91;50.16
3428;BME280;1727;42.624;23.406;2022-10-31T10:28:30;95432.19;;;21.99;50.22
3428;BME280;1727;42.624;23.406;2022-10-31T10:31:07;95432.19;;;21.99;49.12
3428;BME280;1727;42.624;23.406;2022-10-31T10:33:38;95432.34;;;21.97;48.84
3428;BME280;1727;42.624;23.406;2022-10-31T10:36:10;95434.28;;;22.03;49.46
3428;BME280;1727;42.624;23.406;2022-10-31T10:38:46;95426.56;;;22.08;48.34
3428;BME280;1727;42.624;23.406;2022-10-31T10:41:17;95419.94;;;22.04;46.99
3428;BME280;1727;42.624;23.406;2022-10-31T10:43:44;95403.06;;;22.04;46.98
3428;BME280;1727;42.624;23.406;2022-10-31T10:46:23;95418.00;;;21.98;47.30
3428;BME280;1727;42.624;23.406;2022-10-31T10:49:16;95397.44;;;21.84;48.40
3428;BME280;1727;42.624;23.406;2022-10-31T10:51:46;95403.56;;;21.78;48.12
3428;BME280;1727;42.624;23.406;2022-10-31T10:54:37;95407.22;;;21.62;48.72
3428;BME280;1727;42.624;23.406;2022-10-31T10:57:13;95403.56;;;21.48;49.11
3428;BME280;1727;42.624;23.406;2022-10-31T10:59:44;95405.16;;;21.43;49.09
3428;BME280;1727;42.624;23.406;2022-10-31T11:02:17;95403.19;;;21.37;49.21
3428;BME280;1727;42.624;23.406;2022-10-31T11:04:46;95405.75;;;21.30;50.10
3428;BME280;1727;42.624;23.406;2022-10-31T11:07:13;95401.16;;;21.24;50.07
3428;BME280;1727;42.624;23.406;2022-10-31T11:09:40;95395.88;;;21.16;50.10
3428;BME280;1727;42.624;23.406;2022-10-31T11:12:09;95392.56;;;21.14;50.63
3428;BME280;1727;42.624;23.406;2022-10-31T11:14:43;95391.56;;;21.15;50.96
3428;BME280;1727;42.624;23.406;2022-10-31T11:17:22;95392.03;;;21.18;50.10
3428;BME280;1727;42.624;23.406;2022-10-31T11:20:03;95394.31;;;21.21;50.08
3428;BME280;1727;42.624;23.406;2022-10-31T11:22:31;95375.13;;;21.26;50.09
3428;BME280;1727;42.624;23.406;2022-10-31T11:24:58;95376.31;;;21.38;50.82
3428;BME280;1727;42.624;23.406;2022-10-31T11:27:26;95365.72;;;21.45;49.93
3428;BME280;1727;42.624;23.406;2022-10-31T11:30:04;95364.16;;;21.50;49.26
3428;BME280;1727;42.624;23.406;2022-10-31T11:32:33;95363.47;;;21.63;49.18
3428;BME280;1727;42.624;23.406;2022-10-31T11:35:02;95362.38;;;21.72;49.33
3428;BME280;1727;42.624;23.406;2022-10-31T11:37:41;95356.34;;;21.85;48.22
3428;BME280;1727;42.624;23.406;2022-10-31T11:40:16;95350.50;;;21.96;47.29
3428;BME280;1727;42.624;23.406;2022-10-31T11:42:44;95358.47;;;22.04;47.47
3428;BME280;1727;42.624;23.406;2022-10-31T11:45:15;95346.63;;;22.13;46.39
3428;BME280;1727;42.624;23.406;2022-10-31T11:47:46;95343.56;;;22.16;46.52
3428;BME280;1727;42.624;23.406;2022-10-31T11:50:19;95346.81;;;22.12;46.62
3428;BME280;1727;42.624;23.406;2022-10-31T11:52:46;95355.41;;;22.07;46.20
3428;BME280;1727;42.624;23.406;2022-10-31T11:55:17;95343.78;;;22.00;46.97
3428;BME280;1727;42.624;23.406;2022-10-31T11:57:49;95348.13;;;22.01;47.57
3428;BME280;1727;42.624;23.406;2022-10-31T12:00:22;95344.00;;;21.99;47.31
3428;BME280;1727;42.624;23.406;2022-10-31T12:02:51;95343.31;;;21.96;46.60
3428;BME280;1727;42.624;23.406;2022-10-31T12:05:30;95347.84;;;21.96;46.50
3428;BME280;1727;42.624;23.406;2022-10-31T12:07:58;95349.03;;;21.93;46.86
3428;BME280;1727;42.624;23.406;2022-10-31T12:13:28;95338.34;;;21.93;47.26
3428;BME280;1727;42.624;23.406;2022-10-31T12:16:04;95340.00;;;21.94;46.74
3428;BME280;1727;42.624;23.406;2022-10-31T12:18:47;95335.50;;;21.95;46.61
3428;BME280;1727;42.624;23.406;2022-10-31T12:21:41;95341.22;;;21.92;46.66
3428;BME280;1727;42.624;23.406;2022-10-31T12:24:18;95341.84;;;21.94;47.76
3428;BME280;1727;42.624;23.406;2022-10-31T12:26:55;95334.66;;;21.94;47.66
3428;BME280;1727;42.624;23.406;2022-10-31T12:29:37;95332.28;;;22.00;47.30
3428;BME280;1727;42.624;23.406;2022-10-31T12:32:20;95334.41;;;22.04;46.16
3428;BME280;1727;42.624;23.406;2022-10-31T12:35:09;95335.28;;;22.11;46.09
3428;BME280;1727;42.624;23.406;2022-10-31T12:37:53;95336.19;;;22.18;46.14
3428;BME280;1727;42.624;23.406;2022-10-31T12:40:33;95327.19;;;22.26;46.46
3428;BME280;1727;42.624;23.406;2022-10-31T12:45:51;95328.56;;;22.37;46.37
3428;BME280;1727;42.624;23.406;2022-10-31T12:51:28;95331.72;;;22.47;45.32
3428;BME280;1727;42.624;23.406;2022-10-31T12:54:29;95332.78;;;22.52;45.09
3428;BME280;1727;42.624;23.406;2022-10-31T12:57:04;95329.91;;;22.54;45.21
3428;BME280;1727;42.624;23.406;2022-10-31T12:59:37;95330.19;;;22.59;44.94
3428;BME280;1727;42.624;23.406;2022-10-31T13:02:13;95324.47;;;22.62;44.55
3428;BME280;1727;42.624;23.406;2022-10-31T13:04:46;95333.34;;;22.69;44.36
3428;BME280;1727;42.624;23.406;2022-10-31T13:07:20;95324.50;;;22.69;44.30
3428;BME280;1727;42.624;23.406;2022-10-31T13:09:54;95325.97;;;22.71;44.49
3428;BME280;1727;42.624;23.406;2022-10-31T13:12:24;95332.56;;;22.75;44.34
3428;BME280;1727;42.624;23.406;2022-10-31T13:14:53;95333.16;;;22.71;44.28
3428;BME280;1727;42.624;23.406;2022-10-31T13:17:27;95328.44;;;22.73;43.96
3428;BME280;1727;42.624;23.406;2022-10-31T13:20:03;95329.47;;;22.72;44.58
3428;BME280;1727;42.624;23.406;2022-10-31T13:22:34;95336.50;;;22.79;45.07
3428;BME280;1727;42.624;23.406;2022-10-31T13:25:09;95334.22;;;22.76;43.96
3428;BME280;1727;42.624;23.406;2022-10-31T13:27:44;95331.34;;;22.78;44.61
3428;BME280;1727;42.624;23.406;2022-10-31T13:30:15;95338.75;;;22.76;44.15
3428;BME280;1727;42.624;23.406;2022-10-31T13:32:45;95327.47;;;22.80;44.25
3428;BME280;1727;42.624;23.406;2022-10-31T13:35:20;95331.47;;;22.84;44.60